Terminal Aerodrome Forecast
Issued by NWS Corpus Christi, TX

Home | Current Version | Previous Version | Text Only | Print | Product List | Glossary On
Versions: 1 2 3 4 5 6 7 8 9 10 11 12 13 14 15
000
FTUS44 KCRP 211129
TAFCRP
TAF
KCRP 211129Z 2112/2212 16005KT 6SM BR BCFG VCFG FEW020
     FM211500 16011KT P6SM SCT025 BKN035
     FM211700 15014G19KT P6SM SCT035
     FM220100 15009KT P6SM FEW025
     FM221000 28003KT 6SM MIFG SCT015=

USA.gov is the U.S. government's official web portal to all federal, state and local government web resources and services.